createdAt,value
2018-10-01T00:02:19.997Z,4.10
2018-10-01T00:04:48.259Z,7.90
2018-10-01T00:07:16.551Z,8.40
2018-10-01T00:09:44.781Z,4.37
2018-10-01T00:12:13.167Z,6.40
2018-10-01T00:14:41.454Z,7.33
2018-10-01T00:17:09.753Z,8.43
2018-10-01T00:19:43.428Z,5.20
2018-10-01T00:22:17.207Z,6.07
2018-10-01T00:24:45.543Z,4.67
2018-10-01T00:27:13.870Z,3.83
2018-10-01T00:29:42.162Z,5.87
2018-10-01T00:32:10.499Z,4.27
2018-10-01T00:34:38.817Z,4.27
2018-10-01T00:37:07.129Z,6.30
2018-10-01T00:39:35.565Z,5.50
2018-10-01T00:42:03.929Z,3.00
2018-10-01T00:44:32.226Z,8.33
2018-10-01T00:47:00.535Z,4.07
2018-10-01T00:49:28.793Z,5.27
2018-10-01T00:51:57.080Z,5.03
2018-10-01T00:54:25.383Z,10.07
2018-10-01T00:56:53.735Z,4.60
2018-10-01T00:59:22.012Z,7.20
2018-10-01T01:01:50.298Z,4.60
2018-10-01T01:04:18.560Z,5.30
2018-10-01T01:06:46.897Z,7.83
2018-10-01T01:09:15.208Z,8.63
2018-10-01T01:11:43.509Z,7.07
2018-10-01T01:14:11.846Z,6.27
2018-10-01T01:16:40.223Z,5.03
2018-10-01T01:19:08.518Z,11.43
2018-10-01T01:21:36.803Z,4.03
2018-10-01T01:24:05.080Z,8.20
2018-10-01T01:26:33.364Z,5.60
2018-10-01T01:29:01.633Z,5.73
2018-10-01T01:31:29.916Z,4.10
2018-10-01T01:33:58.238Z,3.87
2018-10-01T01:36:26.573Z,3.73
2018-10-01T01:38:54.859Z,4.40
2018-10-01T01:41:23.138Z,8.00
2018-10-01T01:43:51.418Z,7.87
2018-10-01T01:46:19.716Z,8.13
2018-10-01T01:48:47.948Z,6.23
2018-10-01T01:51:17.444Z,4.27
2018-10-01T01:53:45.744Z,4.00
2018-10-01T01:56:14.049Z,7.07
2018-10-01T01:58:42.378Z,8.47
2018-10-01T02:01:10.675Z,4.67
2018-10-01T02:03:38.975Z,6.60
2018-10-01T02:06:07.279Z,7.33
2018-10-01T02:08:35.729Z,8.70
2018-10-01T02:11:04.083Z,5.03
2018-10-01T02:13:32.373Z,7.37
2018-10-01T02:16:00.682Z,5.97
2018-10-01T02:18:29.077Z,3.87
2018-10-01T02:20:57.393Z,6.83
2018-10-01T02:23:25.759Z,6.93
2018-10-01T02:25:54.081Z,4.17
2018-10-01T02:28:22.456Z,4.97
2018-10-01T02:30:50.785Z,3.00
2018-10-01T02:33:19.102Z,6.63
2018-10-01T02:35:47.371Z,4.47
2018-10-01T02:38:15.639Z,4.27
2018-10-01T02:40:44.007Z,4.90
2018-10-01T02:43:12.275Z,4.27
2018-10-01T02:45:40.809Z,4.57
2018-10-01T02:48:09.066Z,6.60
2018-10-01T02:50:37.361Z,12.43
2018-10-01T02:53:10.984Z,15.40
2018-10-01T02:55:39.323Z,19.07
2018-10-01T02:58:07.598Z,12.57
2018-10-01T03:00:35.915Z,9.47
2018-10-01T03:03:04.174Z,15.00
2018-10-01T03:05:32.434Z,14.67
2018-10-01T03:08:00.723Z,10.43
2018-10-01T03:10:29.001Z,8.80
2018-10-01T03:12:57.272Z,13.90
2018-10-01T03:15:25.636Z,7.87
2018-10-01T03:17:53.925Z,9.77
2018-10-01T03:20:22.291Z,8.70
2018-10-01T03:22:50.604Z,10.50
2018-10-01T03:25:18.874Z,6.73
2018-10-01T03:27:47.147Z,10.53
2018-10-01T03:30:16.417Z,12.27
2018-10-01T03:32:44.822Z,10.57
2018-10-01T03:35:13.191Z,6.13
2018-10-01T03:37:41.541Z,6.83
2018-10-01T03:40:09.926Z,6.63
2018-10-01T03:42:38.256Z,6.97
2018-10-01T03:45:06.544Z,9.03
2018-10-01T03:47:34.883Z,9.43
2018-10-01T03:50:03.264Z,5.73
2018-10-01T03:52:31.546Z,8.70
2018-10-01T03:54:59.845Z,9.40
2018-10-01T03:57:28.208Z,5.80
2018-10-01T03:59:56.611Z,9.43
2018-10-01T04:02:24.961Z,6.23
2018-10-01T04:04:53.271Z,7.80
2018-10-01T04:07:21.620Z,5.77
2018-10-01T04:09:49.909Z,6.03
2018-10-01T04:12:18.211Z,7.93
2018-10-01T04:14:46.606Z,6.43
2018-10-01T04:17:14.950Z,6.43
2018-10-01T04:19:43.240Z,10.40
2018-10-01T04:22:11.674Z,4.93
2018-10-01T04:24:40.029Z,5.13
2018-10-01T04:27:08.399Z,6.80
2018-10-01T04:29:36.725Z,4.33
2018-10-01T04:32:05.033Z,4.33
2018-10-01T04:34:33.413Z,7.57
2018-10-01T04:37:01.771Z,2.97
2018-10-01T04:39:30.168Z,4.10
2018-10-01T04:41:58.518Z,3.47
2018-10-01T04:44:26.827Z,3.97
2018-10-01T04:46:55.247Z,2.97
2018-10-01T04:49:23.577Z,4.50
2018-10-01T04:51:51.835Z,2.47
2018-10-01T04:54:20.138Z,5.70
2018-10-01T04:56:48.436Z,4.37
2018-10-01T04:59:17.686Z,4.43
2018-10-01T05:01:46.067Z,5.30
2018-10-01T05:04:14.412Z,4.43
2018-10-01T05:06:42.732Z,6.73
2018-10-01T05:09:11.729Z,3.00
2018-10-01T05:11:40.024Z,6.47
2018-10-01T05:14:08.468Z,3.20
2018-10-01T05:16:36.768Z,4.40
2018-10-01T05:19:05.179Z,6.00
2018-10-01T05:21:33.543Z,3.87
2018-10-01T05:24:01.952Z,4.43
2018-10-01T05:26:30.323Z,8.17
2018-10-01T05:28:58.863Z,9.53
2018-10-01T05:31:27.147Z,4.00
2018-10-01T05:33:55.419Z,5.77
2018-10-01T05:36:23.859Z,5.47
2018-10-01T05:38:52.172Z,6.23
2018-10-01T05:41:21.502Z,4.97
2018-10-01T05:43:49.953Z,12.87
2018-10-01T05:46:18.265Z,5.20
2018-10-01T05:48:46.651Z,7.77
2018-10-01T05:51:15.111Z,8.27
2018-10-01T05:53:43.379Z,2.73
2018-10-01T05:56:11.701Z,3.83
2018-10-01T05:58:40.036Z,4.00
2018-10-01T06:01:08.508Z,4.83
2018-10-01T06:03:36.836Z,5.13
2018-10-01T06:06:05.201Z,3.27
2018-10-01T06:08:33.648Z,7.47
2018-10-01T06:11:01.946Z,5.07
2018-10-01T06:13:30.232Z,6.60
2018-10-01T06:15:58.622Z,5.37
2018-10-01T06:18:26.965Z,11.13
2018-10-01T06:20:55.477Z,12.47
2018-10-01T06:23:23.857Z,5.57
2018-10-01T06:25:52.774Z,4.20
2018-10-01T06:28:21.252Z,3.73
2018-10-01T06:30:49.600Z,5.10
2018-10-01T06:33:17.949Z,7.13
2018-10-01T06:35:46.252Z,8.00
2018-10-01T06:38:14.508Z,9.27
2018-10-01T06:40:42.842Z,9.10
2018-10-01T06:43:11.295Z,5.40
2018-10-01T06:45:39.694Z,11.30
2018-10-01T06:48:08.040Z,7.03
2018-10-01T06:50:36.339Z,11.03
2018-10-01T06:53:04.689Z,11.53
2018-10-01T06:55:32.989Z,7.63
2018-10-01T06:58:01.494Z,4.87
2018-10-01T07:00:29.884Z,5.73
2018-10-01T07:02:58.325Z,6.97
2018-10-01T07:05:26.727Z,8.97
2018-10-01T07:07:55.095Z,4.83
2018-10-01T07:10:23.681Z,5.93
2018-10-01T07:12:52.076Z,5.47
2018-10-01T07:15:20.491Z,6.23
2018-10-01T07:17:48.803Z,5.30
2018-10-01T07:20:17.069Z,12.33
2018-10-01T07:22:45.538Z,13.60
2018-10-01T07:25:13.838Z,5.30
2018-10-01T07:27:42.216Z,6.83
2018-10-01T07:30:10.617Z,6.77
2018-10-01T07:32:39.040Z,5.13
2018-10-01T07:35:07.587Z,11.27
2018-10-01T07:37:35.953Z,5.90
2018-10-01T07:40:04.440Z,6.43
2018-10-01T07:42:32.974Z,3.70
2018-10-01T07:45:01.463Z,9.93
2018-10-01T07:47:29.772Z,9.63
2018-10-01T07:49:58.180Z,7.47
2018-10-01T07:52:26.515Z,6.53
2018-10-01T08:02:03.169Z,4.67
2018-10-01T08:04:31.515Z,15.43
2018-10-01T08:07:00.986Z,6.10
2018-10-01T08:09:29.380Z,8.37
2018-10-01T08:11:57.712Z,10.73
2018-10-01T08:14:26.183Z,12.70
2018-10-01T08:16:54.461Z,8.97
2018-10-01T08:19:22.838Z,5.57
2018-10-01T08:21:51.205Z,4.83
2018-10-01T08:24:19.607Z,12.47
2018-10-01T08:26:48.000Z,12.23
2018-10-01T08:29:16.355Z,5.03
2018-10-01T08:31:44.816Z,7.50
2018-10-01T08:34:13.101Z,6.67
2018-10-01T08:36:41.536Z,9.67
2018-10-01T08:39:12.081Z,8.93
2018-10-01T08:41:41.001Z,4.63
2018-10-01T08:44:09.817Z,8.47
2018-10-01T08:46:38.102Z,5.87
2018-10-01T08:49:21.868Z,5.17
2018-10-01T08:51:57.455Z,10.03
2018-10-01T08:54:34.239Z,5.93
2018-10-01T08:57:02.639Z,4.50
2018-10-01T08:59:31.237Z,7.23
2018-10-01T09:02:00.386Z,12.40
2018-10-01T09:04:28.716Z,11.50
2018-10-01T09:06:57.058Z,8.63
2018-10-01T09:09:25.425Z,7.97
2018-10-01T09:11:53.729Z,6.60
2018-10-01T09:14:22.177Z,12.90
2018-10-01T09:16:50.529Z,9.40
2018-10-01T09:19:18.893Z,5.97
2018-10-01T09:21:48.369Z,4.80
2018-10-01T09:24:16.800Z,9.33
2018-10-01T09:26:45.120Z,6.30
2018-10-01T09:29:13.617Z,6.43
2018-10-01T09:33:06.463Z,8.10
2018-10-01T09:35:35.043Z,9.80
2018-10-01T09:38:03.406Z,9.50
2018-10-01T09:40:31.836Z,12.23
2018-10-01T09:43:00.174Z,11.27
2018-10-01T09:45:28.450Z,9.90
2018-10-01T09:47:56.792Z,7.57
2018-10-01T09:50:25.179Z,7.27
2018-10-01T09:52:53.528Z,7.60
2018-10-01T09:55:21.888Z,8.93
2018-10-01T09:57:50.246Z,9.63
2018-10-01T10:00:24.052Z,9.37
2018-10-01T10:02:52.407Z,7.77
2018-10-01T10:05:20.734Z,10.63
2018-10-01T10:07:49.197Z,13.17
2018-10-01T10:10:17.571Z,5.60
2018-10-01T10:12:45.954Z,12.50
2018-10-01T10:15:14.542Z,6.60
2018-10-01T10:17:42.891Z,9.37
2018-10-01T10:20:11.586Z,5.50
2018-10-01T10:22:39.923Z,9.80
2018-10-01T10:25:08.348Z,7.53
2018-10-01T10:27:36.657Z,10.73
2018-10-01T10:30:05.495Z,10.17
2018-10-01T10:32:33.929Z,4.93
2018-10-01T10:35:02.213Z,9.53
2018-10-01T10:37:30.596Z,9.70
2018-10-01T10:39:58.994Z,13.23
2018-10-01T10:42:27.329Z,14.13
2018-10-01T10:44:55.669Z,13.13
2018-10-01T10:47:23.980Z,9.47
2018-10-01T10:49:52.262Z,6.97
2018-10-01T10:52:20.790Z,5.03
2018-10-01T10:54:49.108Z,4.03
2018-10-01T10:57:17.396Z,12.83
2018-10-01T10:59:45.735Z,6.97
2018-10-01T11:02:14.103Z,5.80
2018-10-01T11:04:42.465Z,7.77
2018-10-01T11:07:10.818Z,8.40
2018-10-01T11:09:39.236Z,5.27
2018-10-01T11:12:07.657Z,5.83
2018-10-01T11:14:35.977Z,5.67
2018-10-01T11:17:04.419Z,7.27
2018-10-01T11:19:32.772Z,4.37
2018-10-01T11:22:01.174Z,5.07
2018-10-01T11:24:29.525Z,7.17
2018-10-01T11:26:57.929Z,4.40
2018-10-01T11:29:26.313Z,6.70
2018-10-01T11:31:54.751Z,8.13
2018-10-01T11:34:23.059Z,8.23
2018-10-01T11:36:51.362Z,3.93
2018-10-01T11:39:19.738Z,9.53
2018-10-01T11:41:48.079Z,4.60
2018-10-01T11:44:16.405Z,6.50
2018-10-01T11:46:44.698Z,7.10
2018-10-01T11:49:13.100Z,12.93
2018-10-01T11:51:41.535Z,7.00
2018-10-01T11:54:09.833Z,8.83
2018-10-01T11:56:38.254Z,3.23
2018-10-01T11:59:06.657Z,3.27
2018-10-01T12:01:35.001Z,4.40
2018-10-01T12:04:03.393Z,6.03
2018-10-01T12:06:31.750Z,4.70
2018-10-01T12:09:00.096Z,4.97
2018-10-01T12:11:28.469Z,4.73
2018-10-01T12:13:56.723Z,4.90
2018-10-01T12:16:25.035Z,4.57
2018-10-01T12:18:53.407Z,3.90
2018-10-01T12:21:21.726Z,2.00
2018-10-01T12:23:50.062Z,4.93
2018-10-01T12:26:18.371Z,3.97
2018-10-01T12:28:46.716Z,1.87
2018-10-01T12:31:15.008Z,3.00
2018-10-01T12:33:43.423Z,1.43
2018-10-01T12:36:11.750Z,3.23
2018-10-01T12:38:40.014Z,1.87
2018-10-01T12:41:08.312Z,4.90
2018-10-01T12:43:36.584Z,2.63
2018-10-01T12:46:04.883Z,1.97
2018-10-01T12:48:33.241Z,2.90
2018-10-01T12:51:01.542Z,1.20
2018-10-01T12:53:29.940Z,0.50
2018-10-01T12:55:58.299Z,1.03
2018-10-01T12:58:26.724Z,0.83
2018-10-01T13:00:55.036Z,1.53
2018-10-01T13:03:23.286Z,5.97
2018-10-01T13:05:51.645Z,5.80
2018-10-01T13:08:20.007Z,2.10
2018-10-01T13:10:48.348Z,1.47
2018-10-01T13:13:16.611Z,0.83
2018-10-01T13:15:44.926Z,5.20
2018-10-01T13:18:13.496Z,6.27
2018-10-01T13:20:41.741Z,3.07
2018-10-01T13:23:10.046Z,11.67
2018-10-01T13:25:38.432Z,5.47
2018-10-01T13:28:06.890Z,2.90
2018-10-01T13:30:35.346Z,9.30
2018-10-01T13:33:03.667Z,3.33
2018-10-01T13:35:32.159Z,1.70
2018-10-01T13:38:00.567Z,3.27
2018-10-01T13:40:28.889Z,3.47
2018-10-01T13:42:57.234Z,3.40
2018-10-01T13:45:25.593Z,4.07
2018-10-01T13:47:54.058Z,0.90
2018-10-01T13:50:22.470Z,2.70
2018-10-01T13:52:50.983Z,0.50
2018-10-01T13:55:20.783Z,4.03
2018-10-01T13:57:49.138Z,5.17
2018-10-01T14:00:17.448Z,3.30
2018-10-01T14:02:45.883Z,2.60
2018-10-01T14:05:14.280Z,6.87
2018-10-01T14:07:42.872Z,4.60
2018-10-01T14:10:11.201Z,3.47
2018-10-01T14:12:39.865Z,5.73
2018-10-01T14:15:08.144Z,1.33
2018-10-01T14:17:36.593Z,2.87
2018-10-01T14:20:06.109Z,3.07
2018-10-01T14:22:42.165Z,5.90
2018-10-01T14:25:11.212Z,1.60
2018-10-01T14:27:40.479Z,8.50
2018-10-01T14:30:09.912Z,2.30
2018-10-01T14:32:39.287Z,1.00
2018-10-01T14:35:07.740Z,4.37
2018-10-01T14:37:36.122Z,2.63
2018-10-01T14:40:04.465Z,2.40
2018-10-01T14:42:32.909Z,2.37
2018-10-01T14:45:01.181Z,1.03
2018-10-01T14:47:29.630Z,6.33
2018-10-01T14:49:58.014Z,2.00
2018-10-01T14:52:26.429Z,2.23
2018-10-01T14:54:54.804Z,2.50
2018-10-01T14:57:23.091Z,1.67
2018-10-01T14:59:51.431Z,2.60
2018-10-01T15:02:19.934Z,5.67
2018-10-01T15:04:48.277Z,3.03
2018-10-01T15:07:16.756Z,3.17
2018-10-01T15:09:45.094Z,2.13
2018-10-01T15:12:13.564Z,4.23
2018-10-01T15:14:41.859Z,1.67
2018-10-01T15:17:10.094Z,7.37
2018-10-01T15:19:38.496Z,1.23
2018-10-01T15:22:06.832Z,3.50
2018-10-01T15:24:35.279Z,6.43
2018-10-01T15:27:03.540Z,1.33
2018-10-01T15:29:31.863Z,1.37
2018-10-01T15:32:00.209Z,1.80
2018-10-01T15:34:28.595Z,3.73
2018-10-01T15:36:56.855Z,0.53
2018-10-01T15:39:25.245Z,3.70
2018-10-01T15:41:53.846Z,0.60
2018-10-01T15:44:22.268Z,4.47
2018-10-01T15:46:50.564Z,3.70
2018-10-01T15:49:18.855Z,3.20
2018-10-01T15:51:47.207Z,2.70
2018-10-01T15:54:15.528Z,5.73
2018-10-01T15:56:43.757Z,0.93
2018-10-01T15:59:12.065Z,2.10
2018-10-01T16:01:40.345Z,0.70
2018-10-01T16:04:08.707Z,1.17
2018-10-01T16:06:36.992Z,3.80
2018-10-01T16:09:08.110Z,1.93
2018-10-01T16:11:36.451Z,1.77
2018-10-01T16:14:04.953Z,0.57
2018-10-01T16:16:33.257Z,1.00
2018-10-01T16:19:01.579Z,6.97
2018-10-01T16:21:30.116Z,4.23
2018-10-01T16:23:58.535Z,2.10
2018-10-01T16:26:26.892Z,1.47
2018-10-01T16:28:55.604Z,1.17
2018-10-01T16:31:23.928Z,3.33
2018-10-01T16:36:28.287Z,1.40
2018-10-01T16:38:56.608Z,2.40
2018-10-01T16:41:25.028Z,1.87
2018-10-01T16:43:53.373Z,2.43
2018-10-01T16:46:21.714Z,3.63
2018-10-01T16:48:50.046Z,1.53
2018-10-01T16:51:18.505Z,1.90
2018-10-01T16:53:46.875Z,5.83
2018-10-01T16:56:15.246Z,2.37
2018-10-01T16:58:43.554Z,3.83
2018-10-01T17:01:12.819Z,2.47
2018-10-01T17:03:41.212Z,3.60
2018-10-01T17:06:09.549Z,2.93
2018-10-01T17:08:37.851Z,3.47
2018-10-01T17:11:06.128Z,2.50
2018-10-01T17:13:34.453Z,1.50
2018-10-01T17:16:02.819Z,2.17
2018-10-01T17:18:31.162Z,5.80
2018-10-01T17:20:59.426Z,3.40
2018-10-01T17:23:27.707Z,5.47
2018-10-01T17:25:56.015Z,9.13
2018-10-01T17:28:24.443Z,6.27
2018-10-01T17:30:53.044Z,2.60
2018-10-01T17:33:25.314Z,2.23
2018-10-01T17:35:53.780Z,2.33
2018-10-01T17:38:23.185Z,2.30
2018-10-01T17:40:51.493Z,4.63
2018-10-01T17:43:19.866Z,2.90
2018-10-01T17:45:48.155Z,1.77
2018-10-01T17:48:16.414Z,2.33
2018-10-01T17:50:44.708Z,5.33
2018-10-01T17:53:13.023Z,1.43
2018-10-01T17:55:41.380Z,4.30
2018-10-01T17:58:09.718Z,0.93
2018-10-01T18:00:38.080Z,2.90
2018-10-01T18:03:06.513Z,1.87
2018-10-01T18:05:34.793Z,3.47
2018-10-01T18:08:03.067Z,1.73
2018-10-01T18:10:31.444Z,0.97
2018-10-01T18:12:59.712Z,1.33
2018-10-01T18:15:28.009Z,1.33
2018-10-01T18:17:56.475Z,1.70
2018-10-01T18:20:24.767Z,1.20
2018-10-01T18:22:53.124Z,3.03
2018-10-01T18:25:21.436Z,4.77
2018-10-01T18:27:49.809Z,1.47
2018-10-01T18:30:18.283Z,5.57
2018-10-01T18:32:46.594Z,1.90
2018-10-01T18:35:14.989Z,0.43
2018-10-01T18:37:43.344Z,1.30
2018-10-01T18:40:13.484Z,2.77
2018-10-01T18:42:42.281Z,1.03
2018-10-01T18:45:10.765Z,2.93
2018-10-01T18:47:39.215Z,0.60
2018-10-01T18:50:07.861Z,0.60
2018-10-01T18:52:36.187Z,2.90
2018-10-01T18:55:04.539Z,1.17
2018-10-01T18:57:33.005Z,1.83
2018-10-01T19:00:01.406Z,2.30
2018-10-01T19:02:29.672Z,0.50
2018-10-01T19:04:58.074Z,0.80
2018-10-01T19:07:26.560Z,1.80
2018-10-01T19:09:54.907Z,1.13
2018-10-01T19:12:23.299Z,1.20
2018-10-01T19:14:51.690Z,0.57
2018-10-01T19:17:20.000Z,1.13
2018-10-01T19:19:48.387Z,1.03
2018-10-01T19:22:16.756Z,3.23
2018-10-01T19:24:45.082Z,0.57
2018-10-01T19:27:13.509Z,0.63
2018-10-01T19:29:42.044Z,0.73
2018-10-01T19:32:10.377Z,0.67
2018-10-01T19:34:38.826Z,2.83
2018-10-01T19:37:07.266Z,2.67
2018-10-01T19:39:35.599Z,1.43
2018-10-01T19:42:04.047Z,1.70
2018-10-01T19:44:32.431Z,0.70
2018-10-01T19:47:00.858Z,0.73
2018-10-01T19:49:29.113Z,2.00
2018-10-01T19:51:57.755Z,0.83
2018-10-01T19:54:26.124Z,3.60
2018-10-01T19:56:54.605Z,0.50
2018-10-01T19:59:23.019Z,0.60
2018-10-01T20:01:51.389Z,0.50
2018-10-01T20:04:19.804Z,2.93
2018-10-01T20:06:48.199Z,0.90
2018-10-01T20:09:16.573Z,0.93
2018-10-01T20:11:45.187Z,1.93
2018-10-01T20:14:13.747Z,0.50
2018-10-01T20:16:42.411Z,0.57
2018-10-01T20:19:10.759Z,1.03
2018-10-01T20:21:39.109Z,2.03
2018-10-01T20:24:07.475Z,0.70
2018-10-01T20:26:35.956Z,1.00
2018-10-01T20:29:04.554Z,1.37
2018-10-01T20:31:32.701Z,0.80
2018-10-01T20:34:01.049Z,0.77
2018-10-01T20:36:29.487Z,1.20
2018-10-01T20:38:57.844Z,2.27
2018-10-01T20:41:26.253Z,0.50
2018-10-01T20:43:54.680Z,0.50
2018-10-01T20:46:27.636Z,3.43
2018-10-01T20:48:55.949Z,2.27
2018-10-01T20:51:24.328Z,6.13
2018-10-01T20:53:52.711Z,0.50
2018-10-01T20:56:21.209Z,1.60
2018-10-01T20:58:49.623Z,0.60
2018-10-01T21:01:18.047Z,0.40
2018-10-01T21:03:46.433Z,3.70
2018-10-01T21:06:14.816Z,0.47
2018-10-01T21:08:43.200Z,0.90
2018-10-01T21:11:11.583Z,0.80
2018-10-01T21:13:40.023Z,1.13
2018-10-01T21:16:08.423Z,1.60
2018-10-01T21:18:36.929Z,3.47
2018-10-01T21:21:05.302Z,0.60
2018-10-01T21:23:33.723Z,0.57
2018-10-01T21:26:02.164Z,2.87
2018-10-01T21:28:30.659Z,1.30
2018-10-01T21:30:59.016Z,0.77
2018-10-01T21:33:27.368Z,1.47
2018-10-01T21:35:55.659Z,6.40
2018-10-01T21:38:24.003Z,0.87
2018-10-01T21:40:52.253Z,0.67
2018-10-01T21:43:20.615Z,1.27
2018-10-01T21:45:48.938Z,1.70
2018-10-01T21:48:17.252Z,2.20
2018-10-01T21:50:45.569Z,1.60
2018-10-01T21:53:13.901Z,1.30
2018-10-01T21:58:33.982Z,1.67
2018-10-01T22:01:07.702Z,3.90
2018-10-01T22:03:36.004Z,1.63
2018-10-01T22:06:04.518Z,2.23
2018-10-01T22:08:32.859Z,1.33
2018-10-01T22:11:01.199Z,0.23
2018-10-01T22:13:29.484Z,0.97
2018-10-01T22:15:57.777Z,1.83
2018-10-01T22:18:26.040Z,4.03
2018-10-01T22:20:54.312Z,4.00
2018-10-01T22:23:22.622Z,5.60
2018-10-01T22:25:50.972Z,5.00
2018-10-01T22:28:19.274Z,3.50
2018-10-01T22:30:47.618Z,0.60
2018-10-01T22:33:15.915Z,1.07
2018-10-01T22:35:44.189Z,0.90
2018-10-01T22:38:12.456Z,0.93
2018-10-01T22:40:40.715Z,1.67
2018-10-01T22:43:09.027Z,1.60
2018-10-01T22:45:37.296Z,8.07
2018-10-01T22:48:05.624Z,1.27
2018-10-01T22:50:33.929Z,4.60
2018-10-01T22:53:02.212Z,3.13
2018-10-01T22:55:30.488Z,1.80
2018-10-01T22:57:58.818Z,3.23
2018-10-01T23:00:27.798Z,2.63
2018-10-01T23:02:56.261Z,2.17
2018-10-01T23:05:24.711Z,1.13
2018-10-01T23:07:53.392Z,5.00
2018-10-01T23:10:21.801Z,0.70
2018-10-01T23:12:50.259Z,1.33
2018-10-01T23:15:18.577Z,1.77
2018-10-01T23:17:46.806Z,2.77
2018-10-01T23:20:15.095Z,0.67
2018-10-01T23:22:43.407Z,5.93
2018-10-01T23:25:11.670Z,4.10
2018-10-01T23:27:39.904Z,1.57
2018-10-01T23:30:08.215Z,2.03
2018-10-01T23:32:36.451Z,2.70
2018-10-01T23:35:05.880Z,2.97
2018-10-01T23:37:34.142Z,1.63
2018-10-01T23:40:02.442Z,5.20
2018-10-01T23:42:30.734Z,2.80
2018-10-01T23:44:58.999Z,0.40
2018-10-01T23:47:27.277Z,4.10
2018-10-01T23:49:55.568Z,1.30
2018-10-01T23:52:23.854Z,2.37
2018-10-01T23:54:52.103Z,0.47
2018-10-01T23:57:20.367Z,1.60
2018-10-01T23:59:48.682Z,1.93
